createdAt,value
2019-04-29T00:01:14.293Z,99.46
2019-04-29T00:03:47.228Z,99.84
2019-04-29T00:06:20.470Z,99.60
2019-04-29T00:08:53.471Z,99.99
2019-04-29T00:11:26.557Z,99.70
2019-04-29T00:13:59.491Z,99.51
2019-04-29T00:16:32.458Z,99.51
2019-04-29T00:19:05.506Z,99.58
2019-04-29T00:21:38.485Z,99.58
2019-04-29T00:24:12.147Z,100.00
2019-04-29T00:26:45.520Z,100.00
2019-04-29T00:29:18.609Z,100.00
2019-04-29T00:31:51.747Z,99.89
2019-04-29T00:34:24.732Z,99.89
2019-04-29T00:36:57.720Z,99.36
2019-04-29T00:39:30.859Z,98.74
2019-04-29T00:42:04.027Z,98.69
2019-04-29T00:44:36.974Z,98.53
2019-04-29T00:47:10.023Z,98.58
2019-04-29T00:49:42.964Z,99.14
2019-04-29T00:52:15.837Z,99.20
2019-04-29T00:54:48.724Z,99.34
2019-04-29T00:57:21.624Z,99.19
2019-04-29T00:59:54.912Z,99.52
2019-04-29T01:02:27.933Z,99.05
2019-04-29T01:05:00.880Z,99.08
2019-04-29T01:07:33.927Z,99.14
2019-04-29T01:10:07.098Z,99.14
2019-04-29T01:12:40.088Z,99.00
2019-04-29T01:15:13.337Z,99.14
2019-04-29T01:17:46.262Z,99.52
2019-04-29T01:20:19.269Z,99.15
2019-04-29T01:22:52.287Z,99.47
2019-04-29T01:25:25.302Z,99.47
2019-04-29T01:27:58.387Z,99.43
2019-04-29T01:30:56.092Z,99.51
2019-04-29T01:33:29.037Z,99.51
2019-04-29T01:36:01.992Z,99.53
2019-04-29T01:38:34.906Z,99.83
2019-04-29T01:41:08.130Z,99.38
2019-04-29T01:43:40.988Z,99.38
2019-04-29T01:46:14.165Z,99.16
2019-04-29T01:48:47.071Z,99.02
2019-04-29T01:51:20.070Z,99.05
2019-04-29T01:53:53.033Z,99.05
2019-04-29T01:56:27.196Z,98.85
2019-04-29T01:59:00.058Z,98.85
2019-04-29T02:01:33.383Z,99.32
2019-04-29T02:04:06.421Z,99.28
2019-04-29T02:06:39.431Z,99.48
2019-04-29T02:09:12.773Z,99.67
2019-04-29T02:11:45.779Z,99.87
2019-04-29T02:14:18.675Z,99.72
2019-04-29T02:16:53.221Z,99.79
2019-04-29T02:19:26.148Z,99.69
2019-04-29T02:21:59.042Z,100.00
2019-04-29T02:24:31.936Z,99.49
2019-04-29T02:27:05.807Z,99.13
2019-04-29T02:29:38.759Z,99.13
2019-04-29T02:32:11.715Z,99.15
2019-04-29T02:34:44.647Z,99.39
2019-04-29T02:37:17.654Z,99.55
2019-04-29T02:39:50.581Z,99.71
2019-04-29T02:42:23.489Z,99.75
2019-04-29T02:44:56.423Z,99.79
2019-04-29T02:47:29.346Z,99.71
2019-04-29T02:50:02.449Z,99.78
2019-04-29T02:52:35.347Z,99.78
2019-04-29T02:55:08.520Z,100.00
2019-04-29T02:57:41.382Z,99.89
2019-04-29T03:00:14.872Z,99.88
2019-04-29T03:02:47.860Z,99.91
2019-04-29T03:05:20.919Z,99.34
2019-04-29T03:07:53.915Z,99.34
2019-04-29T03:10:27.262Z,98.85
2019-04-29T03:13:00.297Z,98.81
2019-04-29T03:15:33.380Z,99.08
2019-04-29T03:18:06.436Z,99.08
2019-04-29T03:20:39.702Z,99.42
2019-04-29T03:23:12.769Z,99.67
2019-04-29T03:25:45.902Z,99.86
2019-04-29T03:28:18.895Z,99.75
2019-04-29T03:30:51.900Z,99.77
2019-04-29T03:33:24.911Z,99.64
2019-04-29T03:35:58.113Z,100.00
2019-04-29T03:38:31.026Z,99.92
2019-04-29T03:41:03.952Z,99.86
2019-04-29T03:43:37.197Z,99.86
2019-04-29T03:46:10.178Z,99.83
2019-04-29T03:48:43.020Z,99.87
2019-04-29T03:51:16.223Z,99.87
2019-04-29T03:53:49.132Z,99.90
2019-04-29T03:56:22.050Z,100.00
2019-04-29T03:58:54.911Z,100.00
2019-04-29T04:01:27.823Z,100.00
2019-04-29T04:04:00.701Z,99.58
2019-04-29T04:06:33.574Z,99.52
2019-04-29T04:09:06.786Z,99.56
2019-04-29T04:11:39.898Z,99.50
2019-04-29T04:14:12.756Z,99.50
2019-04-29T04:16:45.600Z,99.82
2019-04-29T04:19:18.558Z,99.91
2019-04-29T04:21:51.399Z,99.91
2019-04-29T04:24:24.425Z,99.71
2019-04-29T04:26:57.313Z,99.71
2019-04-29T04:29:30.185Z,99.87
2019-04-29T04:32:03.195Z,99.74
2019-04-29T04:34:36.047Z,99.93
2019-04-29T04:37:08.910Z,99.79
2019-04-29T04:39:41.908Z,99.73
2019-04-29T04:42:15.122Z,99.57
2019-04-29T04:44:48.011Z,99.57
2019-04-29T04:47:21.007Z,100.00
2019-04-29T04:49:53.899Z,100.00
2019-04-29T04:52:27.159Z,100.00
2019-04-29T04:55:00.328Z,99.99
2019-04-29T04:57:33.295Z,100.00
2019-04-29T05:00:06.541Z,100.00
2019-04-29T05:02:39.576Z,99.95
2019-04-29T05:05:12.806Z,100.00
2019-04-29T05:07:45.845Z,100.00
2019-04-29T05:10:18.892Z,100.00
2019-04-29T05:12:51.853Z,100.00
2019-04-29T05:15:25.200Z,100.00
2019-04-29T05:17:58.287Z,100.00
2019-04-29T05:20:31.227Z,100.00
2019-04-29T05:23:04.314Z,100.00
2019-04-29T05:25:37.335Z,100.00
2019-04-29T05:28:10.283Z,100.00
2019-04-29T05:30:43.437Z,100.00
2019-04-29T05:33:16.412Z,100.00
2019-04-29T05:35:49.327Z,100.00
2019-04-29T05:38:22.363Z,100.00
2019-04-29T05:40:56.988Z,100.00
2019-04-29T05:43:32.097Z,100.00
2019-04-29T05:46:07.384Z,100.00
2019-04-29T05:48:39.545Z,100.00
2019-04-29T05:51:12.487Z,100.00
2019-04-29T05:53:47.792Z,100.00
2019-04-29T05:56:19.964Z,100.00
2019-04-29T05:58:52.901Z,100.00
2019-04-29T06:01:25.877Z,100.00
2019-04-29T06:03:58.866Z,100.00
2019-04-29T06:06:31.713Z,100.00
2019-04-29T06:09:06.529Z,100.00
2019-04-29T06:11:39.492Z,100.00
2019-04-29T06:14:12.874Z,100.00
2019-04-29T06:16:46.239Z,100.00
2019-04-29T06:19:19.201Z,100.00
2019-04-29T06:21:52.163Z,100.00
2019-04-29T06:24:25.105Z,100.00
2019-04-29T06:26:58.257Z,100.00
2019-04-29T06:29:31.195Z,100.00
2019-04-29T06:32:04.359Z,100.00
2019-04-29T06:34:40.194Z,100.00
2019-04-29T06:37:12.356Z,100.00
2019-04-29T06:39:46.006Z,100.00
2019-04-29T06:42:19.657Z,100.00
2019-04-29T06:44:53.484Z,100.00
2019-04-29T06:47:26.489Z,100.00
2019-04-29T06:49:59.386Z,100.00
2019-04-29T06:52:32.627Z,100.00
2019-04-29T06:55:06.519Z,100.00
2019-04-29T06:57:39.433Z,100.00
2019-04-29T07:00:12.695Z,100.00
2019-04-29T07:02:49.754Z,100.00
2019-04-29T07:05:20.541Z,100.00
2019-04-29T07:07:53.434Z,100.00
2019-04-29T07:10:27.311Z,100.00
2019-04-29T07:13:00.629Z,100.00
2019-04-29T07:15:33.666Z,100.00
2019-04-29T07:18:06.833Z,99.69
2019-04-29T07:20:39.810Z,98.83
2019-04-29T07:23:12.904Z,97.63
2019-04-29T07:25:45.869Z,97.66
2019-04-29T07:28:19.667Z,97.99
2019-04-29T07:31:01.576Z,98.14
2019-04-29T07:33:27.415Z,96.78
2019-04-29T07:36:10.863Z,95.60
2019-04-29T07:38:41.508Z,95.75
2019-04-29T07:41:10.140Z,94.87
2019-04-29T07:43:44.220Z,89.93
2019-04-29T07:46:17.221Z,87.55
2019-04-29T07:49:00.736Z,83.35
2019-04-29T07:51:25.064Z,83.35
2019-04-29T07:53:57.937Z,80.83
2019-04-29T07:56:30.959Z,80.83
2019-04-29T07:59:04.631Z,78.37
2019-04-29T08:01:37.661Z,77.88
2019-04-29T08:04:10.705Z,78.46
2019-04-29T08:06:44.989Z,74.28
2019-04-29T08:09:18.138Z,72.51
2019-04-29T08:11:51.411Z,70.70
2019-04-29T08:14:27.474Z,70.70
2019-04-29T08:17:00.758Z,65.96
2019-04-29T08:19:33.990Z,65.96
2019-04-29T08:22:06.922Z,62.90
2019-04-29T08:24:39.921Z,59.69
2019-04-29T08:27:12.926Z,59.69
2019-04-29T08:29:46.115Z,59.10
2019-04-29T08:32:19.020Z,59.10
2019-04-29T08:34:53.606Z,53.57
2019-04-29T08:37:26.903Z,56.87
2019-04-29T08:40:15.152Z,58.20
2019-04-29T08:42:37.233Z,60.54
2019-04-29T08:45:09.671Z,60.54
2019-04-29T08:47:42.756Z,57.61
2019-04-29T08:50:16.183Z,51.20
2019-04-29T08:52:49.127Z,52.88
2019-04-29T08:55:22.043Z,52.12
2019-04-29T08:57:54.960Z,50.63
2019-04-29T09:00:27.981Z,50.63
2019-04-29T09:03:00.943Z,53.05
2019-04-29T09:05:33.931Z,53.05
2019-04-29T09:08:06.874Z,54.99
2019-04-29T09:10:40.082Z,57.54
2019-04-29T09:13:13.055Z,61.99
2019-04-29T09:15:46.129Z,60.80
2019-04-29T09:18:19.435Z,59.10
2019-04-29T09:20:52.514Z,59.28
2019-04-29T09:23:25.805Z,59.08
2019-04-29T09:26:02.963Z,58.09
2019-04-29T09:28:33.441Z,51.47
2019-04-29T09:31:06.392Z,51.47
2019-04-29T09:33:39.293Z,49.06
2019-04-29T09:36:13.958Z,47.46
2019-04-29T09:38:47.157Z,41.96
2019-04-29T09:41:20.189Z,41.96
2019-04-29T09:43:53.095Z,44.25
2019-04-29T09:46:30.040Z,45.55
2019-04-29T09:49:01.007Z,45.55
2019-04-29T09:51:33.980Z,49.88
2019-04-29T09:54:09.628Z,55.42
2019-04-29T09:56:42.048Z,55.61
2019-04-29T09:59:14.919Z,55.61
2019-04-29T10:01:50.602Z,56.27
2019-04-29T10:04:22.608Z,51.93
2019-04-29T10:06:55.587Z,51.19
2019-04-29T10:09:28.490Z,54.28
2019-04-29T10:12:01.450Z,54.28
2019-04-29T10:14:34.446Z,59.79
2019-04-29T10:17:11.169Z,59.79
2019-04-29T10:19:42.055Z,57.42
2019-04-29T10:22:15.252Z,55.97
2019-04-29T10:24:48.227Z,56.18
2019-04-29T10:27:21.225Z,56.36
2019-04-29T10:29:55.293Z,52.08
2019-04-29T10:32:28.848Z,52.08
2019-04-29T10:35:03.646Z,49.89
2019-04-29T10:37:36.850Z,54.80
2019-04-29T10:40:11.862Z,54.80
2019-04-29T10:42:44.829Z,55.41
2019-04-29T10:45:17.917Z,56.09
2019-04-29T10:47:51.302Z,56.97
2019-04-29T10:50:26.949Z,56.24
2019-04-29T10:53:01.333Z,56.24
2019-04-29T10:55:34.357Z,57.60
2019-04-29T10:58:07.597Z,57.60
2019-04-29T11:01:23.691Z,58.56
2019-04-29T11:04:00.710Z,59.44
2019-04-29T11:06:35.874Z,56.05
2019-04-29T11:09:09.649Z,56.05
2019-04-29T11:11:43.457Z,56.75
2019-04-29T11:14:17.063Z,55.03
2019-04-29T11:16:49.978Z,55.02
2019-04-29T11:19:23.053Z,57.73
2019-04-29T11:21:55.983Z,57.73
2019-04-29T11:24:32.330Z,59.36
2019-04-29T11:27:11.681Z,59.36
2019-04-29T11:29:38.971Z,57.34
2019-04-29T11:32:12.585Z,57.34
2019-04-29T11:34:48.441Z,56.66
2019-04-29T11:37:20.205Z,56.61
2019-04-29T11:39:53.375Z,56.89
2019-04-29T11:42:26.282Z,56.24
2019-04-29T11:45:02.114Z,56.24
2019-04-29T11:47:33.953Z,54.72
2019-04-29T11:50:11.796Z,53.47
2019-04-29T11:52:42.540Z,48.52
2019-04-29T11:55:18.603Z,46.65
2019-04-29T11:57:51.002Z,52.71
2019-04-29T12:00:24.110Z,55.66
2019-04-29T12:02:57.108Z,55.66
2019-04-29T12:05:30.399Z,58.08
2019-04-29T12:08:11.159Z,53.31
2019-04-29T12:10:46.715Z,52.18
2019-04-29T12:13:13.078Z,52.18
2019-04-29T12:15:49.274Z,47.09
2019-04-29T12:18:20.942Z,43.27
2019-04-29T12:20:53.930Z,41.31
2019-04-29T12:23:26.834Z,42.31
2019-04-29T12:26:03.224Z,42.31
2019-04-29T12:28:37.836Z,50.60
2019-04-29T12:31:10.259Z,50.60
2019-04-29T12:33:44.082Z,49.64
2019-04-29T12:36:17.116Z,53.70
2019-04-29T12:38:51.139Z,53.70
2019-04-29T12:41:29.658Z,50.97
2019-04-29T12:43:59.477Z,50.97
2019-04-29T12:46:32.754Z,49.22
2019-04-29T12:49:08.521Z,43.83
2019-04-29T12:51:40.485Z,42.04
2019-04-29T12:54:13.468Z,43.88
2019-04-29T12:56:47.633Z,42.97
2019-04-29T12:59:21.325Z,44.06
2019-04-29T13:01:58.586Z,50.18
2019-04-29T13:04:29.314Z,54.50
2019-04-29T13:07:02.536Z,54.50
2019-04-29T13:09:35.409Z,55.49
2019-04-29T13:12:18.931Z,55.49
2019-04-29T13:14:43.034Z,55.78
2019-04-29T13:17:15.968Z,57.77
2019-04-29T13:20:00.768Z,57.77
2019-04-29T13:22:23.440Z,59.02
2019-04-29T13:24:56.348Z,61.65
2019-04-29T13:27:29.655Z,61.65
2019-04-29T13:30:07.206Z,63.82
2019-04-29T13:32:38.530Z,63.82
2019-04-29T13:35:12.721Z,62.38
2019-04-29T13:37:45.912Z,62.56
2019-04-29T13:40:19.921Z,63.46
2019-04-29T13:42:52.845Z,62.37
2019-04-29T13:45:26.452Z,62.43
2019-04-29T13:48:01.873Z,64.04
2019-04-29T13:50:39.909Z,64.28
2019-04-29T13:53:11.572Z,63.72
2019-04-29T13:55:49.427Z,63.72
2019-04-29T13:58:22.073Z,63.92
2019-04-29T14:00:55.703Z,63.92
2019-04-29T14:03:27.514Z,64.98
2019-04-29T14:06:04.160Z,64.56
2019-04-29T14:08:34.889Z,64.92
2019-04-29T14:11:07.781Z,64.92
2019-04-29T14:13:43.236Z,63.22
2019-04-29T14:16:15.213Z,65.39
2019-04-29T14:18:49.927Z,67.36
2019-04-29T14:21:25.641Z,69.17
2019-04-29T14:23:57.597Z,69.44
2019-04-29T14:26:30.525Z,71.60
2019-04-29T14:29:03.739Z,73.29
2019-04-29T14:31:36.577Z,73.29
2019-04-29T14:34:09.648Z,72.78
2019-04-29T14:36:43.553Z,73.34
2019-04-29T14:39:17.547Z,73.34
2019-04-29T14:41:55.465Z,74.80
2019-04-29T14:44:30.190Z,74.80
2019-04-29T14:47:01.330Z,73.73
2019-04-29T14:49:35.435Z,72.18
2019-04-29T14:52:13.299Z,72.92
2019-04-29T14:54:44.113Z,72.51
2019-04-29T14:57:17.090Z,73.34
2019-04-29T14:59:50.272Z,73.34
2019-04-29T15:02:23.492Z,74.38
2019-04-29T15:04:56.638Z,74.98
2019-04-29T15:07:29.872Z,73.46
2019-04-29T15:10:03.917Z,73.17
2019-04-29T15:12:50.980Z,73.17
2019-04-29T15:15:11.696Z,74.17
2019-04-29T15:17:46.272Z,76.22
2019-04-29T15:20:19.401Z,75.82
2019-04-29T15:22:52.290Z,76.46
2019-04-29T15:25:25.232Z,78.28
2019-04-29T15:27:58.267Z,78.28
2019-04-29T15:30:31.861Z,78.70
2019-04-29T15:33:06.199Z,78.70
2019-04-29T15:35:39.435Z,78.39
2019-04-29T15:38:12.350Z,78.39
2019-04-29T15:40:45.453Z,78.49
2019-04-29T15:43:24.618Z,78.58
2019-04-29T15:45:53.126Z,79.10
2019-04-29T15:48:26.028Z,80.36
2019-04-29T15:50:59.004Z,81.12
2019-04-29T15:53:33.973Z,81.12
2019-04-29T15:56:20.484Z,81.13
2019-04-29T15:58:41.926Z,81.13
2019-04-29T16:01:17.636Z,81.35
2019-04-29T16:03:54.047Z,81.35
2019-04-29T16:06:24.719Z,81.35
2019-04-29T16:08:59.050Z,81.84
2019-04-29T16:11:33.325Z,82.12
2019-04-29T16:14:10.276Z,82.85
2019-04-29T16:16:42.201Z,82.85
2019-04-29T16:19:15.139Z,82.64
2019-04-29T16:21:48.193Z,83.83
2019-04-29T16:24:37.162Z,83.83
2019-04-29T16:26:55.859Z,84.13
2019-04-29T16:29:30.443Z,84.06
2019-04-29T16:32:05.023Z,84.06
2019-04-29T16:34:44.644Z,83.92
2019-04-29T16:37:19.039Z,83.92
2019-04-29T16:39:47.699Z,83.96
2019-04-29T16:42:20.775Z,84.10
2019-04-29T16:44:53.654Z,84.10
2019-04-29T16:47:26.605Z,85.16
2019-04-29T16:50:04.687Z,85.16
2019-04-29T16:52:34.323Z,85.42
2019-04-29T16:55:07.584Z,85.47
2019-04-29T16:57:40.593Z,86.05
2019-04-29T17:00:15.830Z,86.66
2019-04-29T17:02:49.002Z,86.44
2019-04-29T17:05:21.919Z,85.86
2019-04-29T17:07:54.930Z,85.86
2019-04-29T17:10:27.969Z,86.15
2019-04-29T17:13:00.975Z,86.19
2019-04-29T17:15:34.405Z,86.32
2019-04-29T17:18:07.350Z,86.24
2019-04-29T17:20:40.699Z,87.07
2019-04-29T17:23:13.693Z,87.07
2019-04-29T17:25:46.742Z,86.76
2019-04-29T17:28:25.422Z,86.76
2019-04-29T17:30:54.854Z,87.15
2019-04-29T17:33:29.834Z,86.50
2019-04-29T17:36:03.094Z,87.08
2019-04-29T17:38:36.119Z,87.43
2019-04-29T17:41:09.384Z,87.78
2019-04-29T17:43:43.072Z,87.78
2019-04-29T17:46:17.069Z,87.42
2019-04-29T17:48:53.138Z,87.51
2019-04-29T17:51:24.881Z,87.51
2019-04-29T17:53:57.804Z,87.53
2019-04-29T17:56:30.919Z,87.80
2019-04-29T17:59:05.949Z,87.52
2019-04-29T18:01:42.853Z,87.52
2019-04-29T18:04:16.677Z,87.96
2019-04-29T18:06:48.883Z,88.14
2019-04-29T18:09:22.098Z,88.14
2019-04-29T18:11:57.519Z,88.01
2019-04-29T18:14:37.260Z,88.28
2019-04-29T18:17:05.007Z,88.28
2019-04-29T18:19:38.481Z,88.25
2019-04-29T18:22:11.527Z,88.14
2019-04-29T18:24:45.330Z,88.31
2019-04-29T18:27:18.664Z,87.78
2019-04-29T18:29:51.658Z,87.78
2019-04-29T18:32:34.984Z,88.58
2019-04-29T18:34:59.317Z,88.58
2019-04-29T18:37:36.913Z,88.27
2019-04-29T18:40:07.599Z,88.27
2019-04-29T18:42:43.329Z,88.16
2019-04-29T18:45:15.831Z,88.53
2019-04-29T18:47:48.813Z,88.92
2019-04-29T18:50:21.735Z,89.01
2019-04-29T18:52:56.043Z,89.01
2019-04-29T18:55:29.021Z,89.05
2019-04-29T18:58:02.445Z,88.85
2019-04-29T19:00:35.691Z,88.75
2019-04-29T19:03:08.720Z,88.75
2019-04-29T19:05:42.250Z,88.68
2019-04-29T19:08:22.815Z,88.59
2019-04-29T19:10:52.152Z,88.43
2019-04-29T19:13:26.069Z,89.11
2019-04-29T19:16:09.617Z,89.11
2019-04-29T19:18:34.049Z,88.68
2019-04-29T19:21:06.993Z,89.30
2019-04-29T19:23:40.037Z,89.30
2019-04-29T19:26:13.922Z,88.51
2019-04-29T19:28:46.857Z,88.94
2019-04-29T19:31:19.977Z,88.94
2019-04-29T19:33:55.055Z,89.07
2019-04-29T19:36:27.955Z,89.07
2019-04-29T19:39:00.990Z,88.85
2019-04-29T19:41:35.583Z,88.80
2019-04-29T19:44:08.598Z,88.99
2019-04-29T19:46:41.911Z,88.72
2019-04-29T19:49:15.786Z,88.72
2019-04-29T19:51:48.990Z,89.05
2019-04-29T19:54:26.636Z,89.42
2019-04-29T19:57:03.599Z,89.42
2019-04-29T19:59:32.545Z,89.39
2019-04-29T20:02:10.046Z,89.09
2019-04-29T20:04:40.853Z,89.08
2019-04-29T20:07:16.817Z,89.08
2019-04-29T20:09:49.600Z,89.13
2019-04-29T20:12:25.305Z,89.31
2019-04-29T20:14:59.790Z,89.31
2019-04-29T20:17:33.413Z,89.39
2019-04-29T20:20:07.074Z,89.18
2019-04-29T20:22:43.378Z,89.18
2019-04-29T20:25:16.471Z,88.90
2019-04-29T20:27:49.947Z,89.05
2019-04-29T20:30:23.156Z,89.14
2019-04-29T20:33:01.610Z,89.02
2019-04-29T20:35:32.151Z,88.88
2019-04-29T20:38:05.842Z,89.00
2019-04-29T20:40:43.179Z,89.20
2019-04-29T20:43:15.823Z,89.55
2019-04-29T20:45:48.445Z,89.62
2019-04-29T20:48:21.664Z,89.81
2019-04-29T20:50:56.590Z,89.84
2019-04-29T20:53:30.742Z,90.06
2019-04-29T20:56:12.248Z,90.33
2019-04-29T20:58:40.202Z,90.25
2019-04-29T21:01:15.509Z,90.00
2019-04-29T21:03:52.124Z,89.84
2019-04-29T21:06:23.085Z,90.02
2019-04-29T21:08:55.999Z,90.02
2019-04-29T21:11:29.196Z,90.18
2019-04-29T21:14:02.155Z,90.49
2019-04-29T21:16:35.199Z,90.52
2019-04-29T21:19:08.918Z,90.21
2019-04-29T21:21:43.758Z,90.49
2019-04-29T21:24:18.680Z,90.13
2019-04-29T21:26:51.505Z,90.03
2019-04-29T21:29:25.560Z,90.03
2019-04-29T21:32:01.622Z,90.49
2019-04-29T21:34:37.526Z,90.75
2019-04-29T21:37:10.046Z,90.67
2019-04-29T21:39:44.626Z,90.89
2019-04-29T21:42:17.653Z,90.76
2019-04-29T21:44:50.907Z,90.76
2019-04-29T21:47:26.810Z,91.30
2019-04-29T21:49:58.599Z,91.30
2019-04-29T21:52:31.503Z,91.19
2019-04-29T21:55:05.305Z,90.81
2019-04-29T21:57:38.274Z,90.81
2019-04-29T22:00:11.645Z,91.14
2019-04-29T22:02:46.687Z,91.53
2019-04-29T22:05:21.139Z,91.89
2019-04-29T22:07:54.256Z,91.85
2019-04-29T22:10:29.128Z,91.69
2019-04-29T22:13:02.924Z,91.69
2019-04-29T22:15:40.999Z,92.12
2019-04-29T22:18:14.073Z,92.35
2019-04-29T22:20:46.671Z,92.35
2019-04-29T22:23:19.639Z,92.33
2019-04-29T22:25:52.661Z,92.23
2019-04-29T22:28:25.636Z,92.23
2019-04-29T22:30:58.628Z,92.44
2019-04-29T22:33:34.873Z,92.46
2019-04-29T22:36:10.273Z,92.46
2019-04-29T22:38:43.619Z,92.57
2019-04-29T22:41:20.055Z,92.52
2019-04-29T22:43:50.883Z,92.52
2019-04-29T22:46:25.538Z,93.31
2019-04-29T22:48:58.647Z,93.46
2019-04-29T22:51:31.881Z,93.63
2019-04-29T22:54:05.024Z,93.63
2019-04-29T22:56:40.533Z,93.56
2019-04-29T22:59:14.761Z,93.56
2019-04-29T23:01:50.473Z,93.69
2019-04-29T23:04:22.540Z,93.79
2019-04-29T23:06:55.471Z,93.79
2019-04-29T23:09:28.443Z,93.97
2019-04-29T23:12:01.377Z,93.97
2019-04-29T23:14:36.026Z,94.24
2019-04-29T23:17:12.285Z,94.57
2019-04-29T23:19:46.613Z,94.39
2019-04-29T23:22:22.031Z,94.39
2019-04-29T23:24:53.372Z,94.46
2019-04-29T23:27:26.300Z,94.46
2019-04-29T23:29:59.204Z,94.67
2019-04-29T23:32:32.142Z,95.21
2019-04-29T23:35:09.665Z,95.21
2019-04-29T23:37:41.390Z,94.83
2019-04-29T23:40:14.347Z,94.85
2019-04-29T23:42:47.824Z,94.70
2019-04-29T23:45:22.450Z,94.54
2019-04-29T23:47:55.733Z,95.25
2019-04-29T23:50:28.756Z,95.32
2019-04-29T23:53:01.681Z,95.32
2019-04-29T23:55:35.631Z,95.57
2019-04-29T23:58:08.793Z,95.79
